createdAt,value
2023-04-30T00:01:47.200Z,26.90
2023-04-30T00:04:18.186Z,27.10
2023-04-30T00:06:49.533Z,27.10
2023-04-30T00:09:21.664Z,26.70
2023-04-30T00:11:52.613Z,26.70
2023-04-30T00:14:23.378Z,26.80
2023-04-30T00:16:55.961Z,26.90
2023-04-30T00:19:27.454Z,27.10
2023-04-30T00:21:58.222Z,27.20
2023-04-30T00:24:29.328Z,27.20
2023-04-30T00:27:00.150Z,26.80
2023-04-30T00:29:31.019Z,26.50
2023-04-30T00:32:04.059Z,26.00
2023-04-30T00:34:35.701Z,26.00
2023-04-30T00:37:07.424Z,26.10
2023-04-30T00:39:38.245Z,26.40
2023-04-30T00:42:09.650Z,26.30
2023-04-30T00:44:40.520Z,26.50
2023-04-30T00:47:13.118Z,26.60
2023-04-30T00:49:44.728Z,26.10
2023-04-30T00:52:16.015Z,25.90
2023-04-30T00:54:47.377Z,25.70
2023-04-30T00:57:19.529Z,25.80
2023-04-30T00:59:51.789Z,26.40
2023-04-30T01:02:25.062Z,26.60
2023-04-30T01:04:56.507Z,27.10
2023-04-30T01:07:29.845Z,27.60
2023-04-30T01:10:00.751Z,26.70
2023-04-30T01:12:38.697Z,26.50
2023-04-30T01:15:17.650Z,26.50
2023-04-30T01:17:58.377Z,26.20
2023-04-30T01:20:31.815Z,26.90
2023-04-30T01:23:22.862Z,27.80
2023-04-30T01:26:10.580Z,28.30
2023-04-30T01:28:46.314Z,28.30
2023-04-30T01:31:18.725Z,27.60
2023-04-30T01:33:50.200Z,27.90
2023-04-30T01:36:38.159Z,27.40
2023-04-30T01:39:27.322Z,26.60
2023-04-30T01:42:07.733Z,26.80
2023-04-30T01:45:01.210Z,27.00
2023-04-30T01:47:42.542Z,26.90
2023-04-30T01:50:24.196Z,26.50
2023-04-30T01:52:57.829Z,26.50
2023-04-30T01:55:33.621Z,26.00
2023-04-30T01:58:06.700Z,25.30
2023-04-30T02:00:39.316Z,24.90
2023-04-30T02:03:11.240Z,24.80
2023-04-30T02:05:42.396Z,24.70
2023-04-30T02:08:13.680Z,24.50
2023-04-30T02:10:45.120Z,24.40
2023-04-30T02:13:16.003Z,24.20
2023-04-30T02:15:48.775Z,24.00
2023-04-30T02:18:19.936Z,23.90
2023-04-30T02:20:51.710Z,23.70
2023-04-30T02:23:22.567Z,23.60
2023-04-30T02:25:53.532Z,23.50
2023-04-30T02:28:25.088Z,23.40
2023-04-30T02:30:58.557Z,23.20
2023-04-30T02:33:30.090Z,23.10
2023-04-30T02:36:02.750Z,23.10
2023-04-30T02:38:33.852Z,23.00
2023-04-30T02:41:05.065Z,22.80
2023-04-30T02:43:37.181Z,22.70
2023-04-30T02:46:10.906Z,22.60
2023-04-30T02:48:41.804Z,22.50
2023-04-30T02:51:12.630Z,22.40
2023-04-30T02:53:43.754Z,22.20
2023-04-30T02:56:15.912Z,22.10
2023-04-30T02:58:46.662Z,21.90
2023-04-30T03:01:19.852Z,21.80
2023-04-30T03:03:51.275Z,21.60
2023-04-30T03:06:22.582Z,21.50
2023-04-30T03:08:54.052Z,21.30
2023-04-30T03:11:25.408Z,21.10
2023-04-30T03:13:57.146Z,21.00
2023-04-30T03:16:32.774Z,20.90
2023-04-30T03:19:03.718Z,20.80
2023-04-30T03:21:35.082Z,20.70
2023-04-30T03:24:06.114Z,20.60
2023-04-30T03:26:37.233Z,20.50
2023-04-30T03:29:08.000Z,20.30
2023-04-30T03:31:41.152Z,20.20
2023-04-30T03:34:12.789Z,20.00
2023-04-30T03:36:44.275Z,19.90
2023-04-30T03:39:15.954Z,19.70
2023-04-30T03:41:46.932Z,19.50
2023-04-30T03:44:17.852Z,19.30
2023-04-30T03:46:51.115Z,19.20
2023-04-30T03:49:22.176Z,19.00
2023-04-30T03:51:53.117Z,19.00
2023-04-30T03:54:25.055Z,18.80
2023-04-30T03:56:56.608Z,18.70
2023-04-30T03:59:27.711Z,18.60
2023-04-30T04:02:02.014Z,18.50
2023-04-30T04:04:34.358Z,18.40
2023-04-30T04:07:05.811Z,18.40
2023-04-30T04:09:36.701Z,18.40
2023-04-30T04:12:08.159Z,18.30
2023-04-30T04:14:39.221Z,18.20
2023-04-30T04:17:12.775Z,18.20
2023-04-30T04:19:43.941Z,18.10
2023-04-30T04:22:15.952Z,18.00
2023-04-30T04:24:46.946Z,18.00
2023-04-30T04:27:18.778Z,17.90
2023-04-30T04:29:50.124Z,17.70
2023-04-30T04:32:23.456Z,17.60
2023-04-30T04:34:56.570Z,17.60
2023-04-30T04:37:28.127Z,17.50
2023-04-30T04:39:59.672Z,17.40
2023-04-30T04:42:30.932Z,17.40
2023-04-30T04:45:02.012Z,17.40
2023-04-30T04:47:35.421Z,17.20
2023-04-30T04:50:06.501Z,17.20
2023-04-30T04:52:37.993Z,17.10
2023-04-30T04:55:10.487Z,17.00
2023-04-30T04:57:43.098Z,16.90
2023-04-30T05:00:14.848Z,16.90
2023-04-30T05:02:48.117Z,16.70
2023-04-30T05:05:19.661Z,16.60
2023-04-30T05:07:53.123Z,16.60
2023-04-30T05:10:24.790Z,16.50
2023-04-30T05:12:56.468Z,16.50
2023-04-30T05:15:27.973Z,16.40
2023-04-30T05:18:01.813Z,16.40
2023-04-30T05:20:32.939Z,16.40
2023-04-30T05:23:04.168Z,16.20
2023-04-30T05:25:35.307Z,16.20
2023-04-30T05:28:07.426Z,16.20
2023-04-30T05:30:38.865Z,16.10
2023-04-30T05:33:12.370Z,16.10
2023-04-30T05:35:44.138Z,16.10
2023-04-30T05:38:15.562Z,16.00
2023-04-30T05:40:46.912Z,16.00
2023-04-30T05:43:17.811Z,15.90
2023-04-30T05:45:49.782Z,15.80
2023-04-30T05:48:22.286Z,15.80
2023-04-30T05:50:53.853Z,15.70
2023-04-30T05:53:25.802Z,15.60
2023-04-30T05:55:57.717Z,15.50
2023-04-30T05:58:29.735Z,15.40
2023-04-30T06:01:02.111Z,15.40
2023-04-30T06:03:35.069Z,15.30
2023-04-30T06:06:06.570Z,15.30
2023-04-30T06:08:39.096Z,15.20
2023-04-30T06:11:10.045Z,15.10
2023-04-30T06:13:41.225Z,15.20
2023-04-30T06:16:12.950Z,15.10
2023-04-30T06:18:45.452Z,15.00
2023-04-30T06:21:17.076Z,15.00
2023-04-30T06:23:48.567Z,15.00
2023-04-30T06:26:20.368Z,14.90
2023-04-30T06:28:51.918Z,14.80
2023-04-30T06:31:22.724Z,14.80
2023-04-30T06:33:55.328Z,14.70
2023-04-30T06:36:26.516Z,14.70
2023-04-30T06:38:57.767Z,14.60
2023-04-30T06:41:29.627Z,14.60
2023-04-30T06:44:00.912Z,14.50
2023-04-30T06:46:32.877Z,14.50
2023-04-30T06:49:05.547Z,14.50
2023-04-30T06:51:36.338Z,14.40
2023-04-30T06:54:08.085Z,14.40
2023-04-30T06:56:39.690Z,14.60
2023-04-30T06:59:10.517Z,14.60
2023-04-30T07:01:41.862Z,14.70
2023-04-30T07:04:14.579Z,14.80
2023-04-30T07:06:46.182Z,14.90
2023-04-30T07:09:17.934Z,14.90
2023-04-30T07:11:48.940Z,14.80
2023-04-30T07:14:19.767Z,14.90
2023-04-30T07:16:53.625Z,14.90
2023-04-30T07:19:27.739Z,14.80
2023-04-30T07:21:58.899Z,14.70
2023-04-30T07:24:30.512Z,14.70
2023-04-30T07:27:04.731Z,14.70
2023-04-30T07:29:36.130Z,14.80
2023-04-30T07:32:07.369Z,14.70
2023-04-30T07:34:40.076Z,14.70
2023-04-30T07:37:12.588Z,14.70
2023-04-30T07:39:43.440Z,14.60
2023-04-30T07:42:15.190Z,14.50
2023-04-30T07:44:47.090Z,14.40
2023-04-30T07:47:19.528Z,14.40
2023-04-30T07:49:53.521Z,14.40
2023-04-30T07:52:24.938Z,14.40
2023-04-30T07:54:56.225Z,14.40
2023-04-30T07:57:28.764Z,14.40
2023-04-30T08:00:00.994Z,14.40
2023-04-30T08:02:32.390Z,14.40
2023-04-30T08:05:04.981Z,14.30
2023-04-30T08:07:37.080Z,14.30
2023-04-30T08:10:09.107Z,14.30
2023-04-30T08:12:40.303Z,14.20
2023-04-30T08:15:11.691Z,14.10
2023-04-30T08:17:42.767Z,14.00
2023-04-30T08:20:16.955Z,13.90
2023-04-30T08:22:48.419Z,13.90
2023-04-30T08:25:20.021Z,13.90
2023-04-30T08:27:51.423Z,13.80
2023-04-30T08:30:22.323Z,13.80
2023-04-30T08:32:54.740Z,13.80
2023-04-30T08:35:30.632Z,13.70
2023-04-30T08:38:01.629Z,13.70
2023-04-30T08:40:50.303Z,13.60
2023-04-30T08:43:23.610Z,13.60
2023-04-30T08:45:55.228Z,13.60
2023-04-30T08:48:28.158Z,13.50
2023-04-30T08:51:04.801Z,13.50
2023-04-30T08:53:39.781Z,13.50
2023-04-30T08:56:12.798Z,13.50
2023-04-30T08:58:44.636Z,13.40
2023-04-30T09:01:16.883Z,13.30
2023-04-30T09:03:48.154Z,13.30
2023-04-30T09:06:24.221Z,13.30
2023-04-30T09:08:55.965Z,13.20
2023-04-30T09:11:31.528Z,13.10
2023-04-30T09:14:04.347Z,13.10
2023-04-30T09:16:49.486Z,13.00
2023-04-30T09:19:31.263Z,12.90
2023-04-30T09:22:23.386Z,12.80
2023-04-30T09:24:54.853Z,12.80
2023-04-30T09:27:26.675Z,12.80
2023-04-30T09:30:00.547Z,12.70
2023-04-30T09:32:32.566Z,12.70
2023-04-30T09:35:04.150Z,12.60
2023-04-30T09:37:43.437Z,12.60
2023-04-30T09:40:15.886Z,12.60
2023-04-30T09:43:02.189Z,12.50
2023-04-30T09:45:43.915Z,12.50
2023-04-30T09:48:17.497Z,12.40
2023-04-30T09:50:49.106Z,12.40
2023-04-30T09:53:22.447Z,12.30
2023-04-30T09:55:54.892Z,12.30
2023-04-30T09:58:30.743Z,12.20
2023-04-30T10:01:03.393Z,12.10
2023-04-30T10:03:35.594Z,12.10
2023-04-30T10:06:07.892Z,12.10
2023-04-30T10:08:44.417Z,12.00
2023-04-30T10:11:19.733Z,12.00
2023-04-30T10:13:57.781Z,12.00
2023-04-30T10:16:37.979Z,12.10
2023-04-30T10:19:15.366Z,12.10
2023-04-30T10:21:49.087Z,12.10
2023-04-30T10:24:24.129Z,12.10
2023-04-30T10:26:55.385Z,12.00
2023-04-30T10:29:26.197Z,12.00
2023-04-30T10:31:59.681Z,12.00
2023-04-30T10:34:46.788Z,11.90
2023-04-30T10:37:24.703Z,11.90
2023-04-30T10:39:58.842Z,12.00
2023-04-30T10:42:29.683Z,11.90
2023-04-30T10:45:00.675Z,11.80
2023-04-30T10:47:33.121Z,11.80
2023-04-30T10:50:08.772Z,11.70
2023-04-30T10:52:42.277Z,11.70
2023-04-30T10:55:19.922Z,11.60
2023-04-30T10:57:53.048Z,11.60
2023-04-30T11:00:28.514Z,11.60
2023-04-30T11:03:07.456Z,11.50
2023-04-30T11:05:40.479Z,11.40
2023-04-30T11:08:15.846Z,11.40
2023-04-30T11:11:02.704Z,11.30
2023-04-30T11:13:43.580Z,11.20
2023-04-30T11:16:14.997Z,11.20
2023-04-30T11:18:47.646Z,11.10
2023-04-30T11:21:18.477Z,11.10
2023-04-30T11:23:54.074Z,11.10
2023-04-30T11:26:26.775Z,11.00
2023-04-30T11:29:00.368Z,10.90
2023-04-30T11:31:37.563Z,10.80
2023-04-30T11:34:09.378Z,10.80
2023-04-30T11:36:43.019Z,10.80
2023-04-30T11:39:15.802Z,10.80
2023-04-30T11:41:49.586Z,10.80
2023-04-30T11:44:28.826Z,10.70
2023-04-30T11:46:59.948Z,10.60
2023-04-30T11:49:32.278Z,10.60
2023-04-30T11:52:03.932Z,10.70
2023-04-30T11:54:36.060Z,10.60
2023-04-30T11:57:09.734Z,10.50
2023-04-30T11:59:45.822Z,10.50
2023-04-30T12:02:19.971Z,10.50
2023-04-30T12:04:51.572Z,10.50
2023-04-30T12:07:23.581Z,10.40
2023-04-30T12:09:59.181Z,10.40
2023-04-30T12:12:40.112Z,10.40
2023-04-30T12:15:19.352Z,10.20
2023-04-30T12:17:50.500Z,10.20
2023-04-30T12:20:22.697Z,10.20
2023-04-30T12:22:54.377Z,10.20
2023-04-30T12:25:26.260Z,10.20
2023-04-30T12:28:01.776Z,10.20
2023-04-30T12:30:33.567Z,10.30
2023-04-30T12:33:05.327Z,10.30
2023-04-30T12:35:36.173Z,10.30
2023-04-30T12:38:10.572Z,10.30
2023-04-30T12:40:42.065Z,10.30
2023-04-30T12:43:19.924Z,10.20
2023-04-30T12:45:54.534Z,10.30
2023-04-30T12:48:27.508Z,10.20
2023-04-30T12:51:01.923Z,10.30
2023-04-30T12:53:34.819Z,10.30
2023-04-30T12:56:16.631Z,10.30
2023-04-30T12:58:51.927Z,10.30
2023-04-30T13:01:25.123Z,10.20
2023-04-30T13:03:56.642Z,10.30
2023-04-30T13:06:28.582Z,10.30
2023-04-30T13:08:59.792Z,10.30
2023-04-30T13:11:31.271Z,10.20
2023-04-30T13:14:04.981Z,10.20
2023-04-30T13:16:38.703Z,10.20
2023-04-30T13:19:11.674Z,10.20
2023-04-30T13:21:43.415Z,10.20
2023-04-30T13:24:15.396Z,10.20
2023-04-30T13:26:46.848Z,10.30
2023-04-30T13:29:21.617Z,10.30
2023-04-30T13:31:52.806Z,10.30
2023-04-30T13:34:24.711Z,10.30
2023-04-30T13:36:55.996Z,10.40
2023-04-30T13:39:27.743Z,10.40
2023-04-30T13:41:59.610Z,10.40
2023-04-30T13:44:33.808Z,10.30
2023-04-30T13:47:05.176Z,10.40
2023-04-30T13:49:37.637Z,10.40
2023-04-30T13:52:09.097Z,10.60
2023-04-30T13:54:40.461Z,10.30
2023-04-30T13:57:11.879Z,10.40
2023-04-30T13:59:45.456Z,10.40
2023-04-30T14:02:17.108Z,10.40
2023-04-30T14:05:02.102Z,10.40
2023-04-30T14:07:38.557Z,10.30
2023-04-30T14:10:11.384Z,10.30
2023-04-30T14:12:42.230Z,10.50
2023-04-30T14:15:16.365Z,10.60
2023-04-30T14:17:47.920Z,10.70
2023-04-30T14:20:20.274Z,10.70
2023-04-30T14:22:51.191Z,10.90
2023-04-30T14:25:22.741Z,11.00
2023-04-30T14:27:53.910Z,11.00
2023-04-30T14:30:26.603Z,11.10
2023-04-30T14:32:57.793Z,11.20
2023-04-30T14:35:30.560Z,11.30
2023-04-30T14:38:01.940Z,11.30
2023-04-30T14:40:32.869Z,11.40
2023-04-30T14:43:04.213Z,11.50
2023-04-30T14:45:38.985Z,11.60
2023-04-30T14:48:10.399Z,11.70
2023-04-30T14:50:41.908Z,11.70
2023-04-30T14:53:14.527Z,11.60
2023-04-30T14:55:46.413Z,11.60
2023-04-30T14:58:17.451Z,11.60
2023-04-30T15:00:51.546Z,11.50
2023-04-30T15:03:23.178Z,11.50
2023-04-30T15:05:55.056Z,11.50
2023-04-30T15:08:26.171Z,11.60
2023-04-30T15:10:58.736Z,11.70
2023-04-30T15:13:30.452Z,11.80
2023-04-30T15:16:03.193Z,11.90
2023-04-30T15:18:34.849Z,12.00
2023-04-30T15:21:05.930Z,11.90
2023-04-30T15:23:36.730Z,11.90
2023-04-30T15:26:07.960Z,12.00
2023-04-30T15:28:39.601Z,12.00
2023-04-30T15:31:12.290Z,12.10
2023-04-30T15:33:43.922Z,11.80
2023-04-30T15:36:15.236Z,11.90
2023-04-30T15:38:46.661Z,11.90
2023-04-30T15:41:18.555Z,12.00
2023-04-30T15:43:49.769Z,12.00
2023-04-30T15:46:23.539Z,12.10
2023-04-30T15:48:54.887Z,12.20
2023-04-30T15:51:26.272Z,12.10
2023-04-30T15:53:57.501Z,12.20
2023-04-30T15:56:28.606Z,12.20
2023-04-30T15:59:00.223Z,12.30
2023-04-30T16:01:33.704Z,12.40
2023-04-30T16:04:04.945Z,12.30
2023-04-30T16:06:37.038Z,12.20
2023-04-30T16:09:10.191Z,12.20
2023-04-30T16:11:42.444Z,12.30
2023-04-30T16:14:13.268Z,12.30
2023-04-30T16:16:46.553Z,12.40
2023-04-30T16:19:18.937Z,12.40
2023-04-30T16:21:50.040Z,12.40
2023-04-30T16:24:21.807Z,12.40
2023-04-30T16:26:53.910Z,12.30
2023-04-30T16:29:25.387Z,12.40
2023-04-30T16:31:59.422Z,12.60
2023-04-30T16:34:30.787Z,12.70
2023-04-30T16:37:01.547Z,12.90
2023-04-30T16:39:32.987Z,13.00
2023-04-30T16:42:05.080Z,13.00
2023-04-30T16:44:36.373Z,13.10
2023-04-30T16:47:12.682Z,13.20
2023-04-30T16:49:43.671Z,13.20
2023-04-30T16:52:15.406Z,13.10
2023-04-30T16:54:46.269Z,13.40
2023-04-30T16:57:17.093Z,13.60
2023-04-30T16:59:48.986Z,13.60
2023-04-30T17:02:22.763Z,13.70
2023-04-30T17:04:53.883Z,13.40
2023-04-30T17:07:25.291Z,13.40
2023-04-30T17:09:56.720Z,13.40
2023-04-30T17:12:28.406Z,13.50
2023-04-30T17:14:59.633Z,13.30
2023-04-30T17:17:33.290Z,13.20
2023-04-30T17:20:04.947Z,13.30
2023-04-30T17:22:36.698Z,13.30
2023-04-30T17:25:08.284Z,13.40
2023-04-30T17:27:39.233Z,13.40
2023-04-30T17:30:11.847Z,13.30
2023-04-30T17:32:45.094Z,13.20
2023-04-30T17:35:16.197Z,13.10
2023-04-30T17:37:47.121Z,13.20
2023-04-30T17:40:18.072Z,13.20
2023-04-30T17:42:52.484Z,13.40
2023-04-30T17:45:23.452Z,13.40
2023-04-30T17:47:56.639Z,13.50
2023-04-30T17:50:27.504Z,13.80
2023-04-30T17:52:59.018Z,13.90
2023-04-30T17:55:29.958Z,13.80
2023-04-30T17:58:01.525Z,13.60
2023-04-30T18:00:33.198Z,13.30
2023-04-30T18:03:07.875Z,13.30
2023-04-30T18:05:40.031Z,13.20
2023-04-30T18:08:12.026Z,13.30
2023-04-30T18:10:43.501Z,13.20
2023-04-30T18:13:14.643Z,13.30
2023-04-30T18:15:46.666Z,13.50
2023-04-30T18:18:19.941Z,13.60
2023-04-30T18:20:51.906Z,13.50
2023-04-30T18:23:24.154Z,13.40
2023-04-30T18:25:55.655Z,13.30
2023-04-30T18:28:28.350Z,13.40
2023-04-30T18:30:59.702Z,13.40
2023-04-30T18:33:33.566Z,13.30
2023-04-30T18:36:07.718Z,13.20
2023-04-30T18:38:39.532Z,13.10
2023-04-30T18:41:10.573Z,13.20
2023-04-30T18:43:43.328Z,13.20
2023-04-30T18:46:14.506Z,13.30
2023-04-30T18:48:47.283Z,13.30
2023-04-30T18:51:19.114Z,13.60
2023-04-30T18:53:51.680Z,13.40
2023-04-30T18:56:22.838Z,13.30
2023-04-30T18:58:54.067Z,13.40
2023-04-30T19:01:27.970Z,13.40
2023-04-30T19:04:01.051Z,13.60
2023-04-30T19:06:34.217Z,14.00
2023-04-30T19:09:05.582Z,14.20
2023-04-30T19:11:37.331Z,14.60
2023-04-30T19:14:09.465Z,14.80
2023-04-30T19:16:40.448Z,14.80
2023-04-30T19:19:14.098Z,14.60
2023-04-30T19:21:45.364Z,14.70
2023-04-30T19:24:16.743Z,14.70
2023-04-30T19:26:47.960Z,14.80
2023-04-30T19:29:19.255Z,15.30
2023-04-30T19:31:50.702Z,15.80
2023-04-30T19:34:24.284Z,15.60
2023-04-30T19:36:56.950Z,15.50
2023-04-30T19:39:34.752Z,15.30
2023-04-30T19:42:06.899Z,15.30
2023-04-30T19:44:38.212Z,15.30
2023-04-30T19:47:09.164Z,15.50
2023-04-30T19:49:41.964Z,15.40
2023-04-30T19:52:12.809Z,15.30
2023-04-30T19:54:49.289Z,15.30
2023-04-30T19:57:20.551Z,15.30
2023-04-30T19:59:51.527Z,15.10
2023-04-30T20:02:22.585Z,15.40
2023-04-30T20:04:55.517Z,15.60
2023-04-30T20:07:26.370Z,15.70
2023-04-30T20:09:57.437Z,15.70
2023-04-30T20:12:28.581Z,15.90
2023-04-30T20:14:59.433Z,16.10
2023-04-30T20:17:30.469Z,16.20
2023-04-30T20:20:03.780Z,16.00
2023-04-30T20:22:36.190Z,15.90
2023-04-30T20:25:08.539Z,16.10
2023-04-30T20:27:39.576Z,16.20
2023-04-30T20:30:11.483Z,16.40
2023-04-30T20:32:43.749Z,16.30
2023-04-30T20:35:17.225Z,16.30
2023-04-30T20:37:50.264Z,16.40
2023-04-30T20:40:21.491Z,16.10
2023-04-30T20:42:52.599Z,16.50
2023-04-30T20:45:24.296Z,16.70
2023-04-30T20:47:55.432Z,16.60
2023-04-30T20:50:28.949Z,16.20
2023-04-30T20:53:00.094Z,16.20
2023-04-30T20:55:31.065Z,16.20
2023-04-30T20:58:03.337Z,15.80
2023-04-30T21:00:35.439Z,16.00
2023-04-30T21:03:07.046Z,16.20
2023-04-30T21:05:41.813Z,16.60
2023-04-30T21:08:13.050Z,16.80
2023-04-30T21:10:45.406Z,16.60
2023-04-30T21:13:17.876Z,16.10
2023-04-30T21:15:49.561Z,15.90
2023-04-30T21:18:20.931Z,16.10
2023-04-30T21:20:54.716Z,16.20
2023-04-30T21:23:26.536Z,16.60
2023-04-30T21:25:58.806Z,16.60
2023-04-30T21:28:29.902Z,16.50
2023-04-30T21:31:01.559Z,16.60
2023-04-30T21:33:33.411Z,16.80
2023-04-30T21:36:06.037Z,16.70
2023-04-30T21:38:37.743Z,16.10
2023-04-30T21:41:08.552Z,16.20
2023-04-30T21:43:39.865Z,16.20
2023-04-30T21:46:11.649Z,16.30
2023-04-30T21:48:44.295Z,16.60
2023-04-30T21:51:17.958Z,16.90
2023-04-30T21:53:50.201Z,16.80
2023-04-30T21:56:21.810Z,16.80
2023-04-30T21:58:52.843Z,16.60
2023-04-30T22:01:28.184Z,16.50
2023-04-30T22:03:59.770Z,16.20
2023-04-30T22:06:32.673Z,16.30
2023-04-30T22:09:04.727Z,16.40
2023-04-30T22:11:36.001Z,16.10
2023-04-30T22:14:06.996Z,16.30
2023-04-30T22:16:38.250Z,16.50
2023-04-30T22:19:09.353Z,16.40
2023-04-30T22:21:42.078Z,16.10
2023-04-30T22:24:13.646Z,16.20
2023-04-30T22:26:45.353Z,16.10
2023-04-30T22:29:16.427Z,16.20
2023-04-30T22:31:47.542Z,16.20
2023-04-30T22:34:20.442Z,16.40
2023-04-30T22:36:53.702Z,16.50
2023-04-30T22:39:25.692Z,16.80
2023-04-30T22:41:56.839Z,17.00
2023-04-30T22:44:29.647Z,16.90
2023-04-30T22:47:01.749Z,16.70
2023-04-30T22:49:33.626Z,16.70
2023-04-30T22:52:08.342Z,16.60
2023-04-30T22:54:39.503Z,16.60
2023-04-30T22:57:10.911Z,16.60
2023-04-30T22:59:41.886Z,16.80
2023-04-30T23:02:13.223Z,17.10
2023-04-30T23:04:44.754Z,17.30
2023-04-30T23:07:17.934Z,17.40
2023-04-30T23:09:48.834Z,17.40
2023-04-30T23:12:20.298Z,17.20
2023-04-30T23:14:51.751Z,17.50
2023-04-30T23:17:24.392Z,17.10
2023-04-30T23:19:56.098Z,17.10
2023-04-30T23:22:29.370Z,16.80
2023-04-30T23:25:00.718Z,16.70
2023-04-30T23:27:32.519Z,16.70
2023-04-30T23:30:04.285Z,16.50
2023-04-30T23:32:35.782Z,16.40
2023-04-30T23:35:07.203Z,16.40
2023-04-30T23:37:40.840Z,16.50
2023-04-30T23:40:13.418Z,16.50
2023-04-30T23:42:44.578Z,16.60
2023-04-30T23:45:15.611Z,16.40
2023-04-30T23:47:47.377Z,16.40
2023-04-30T23:50:18.319Z,16.30
2023-04-30T23:52:50.796Z,16.20
2023-04-30T23:55:22.406Z,16.10
2023-04-30T23:57:53.752Z,16.00
